sensor_id;sensor_type;location;lat;lon;timestamp;P1;durP1;ratioP1;P2;durP2;ratioP2
46719;SDS011;32452;51.382;-0.002;2023-03-23T00:01:09;24.40;;;4.55;;
46719;SDS011;32452;51.382;-0.002;2023-03-23T00:03:57;28.90;;;6.07;;
46719;SDS011;32452;51.382;-0.002;2023-03-23T00:06:42;35.92;;;6.07;;
46719;SDS011;32452;51.382;-0.002;2023-03-23T00:09:28;26.63;;;4.88;;
46719;SDS011;32452;51.382;-0.002;2023-03-23T00:12:14;22.05;;;5.07;;
46719;SDS011;32452;51.382;-0.002;2023-03-23T00:14:59;25.70;;;5.47;;
46719;SDS011;32452;51.382;-0.002;2023-03-23T00:17:48;22.90;;;4.88;;
46719;SDS011;32452;51.382;-0.002;2023-03-23T00:20:33;26.92;;;5.60;;
46719;SDS011;32452;51.382;-0.002;2023-03-23T00:23:25;29.75;;;5.88;;
46719;SDS011;32452;51.382;-0.002;2023-03-23T00:26:10;26.42;;;6.18;;
46719;SDS011;32452;51.382;-0.002;2023-03-23T00:28:55;27.80;;;5.63;;
46719;SDS011;32452;51.382;-0.002;2023-03-23T00:31:41;36.78;;;5.40;;
46719;SDS011;32452;51.382;-0.002;2023-03-23T00:34:30;25.58;;;5.60;;
46719;SDS011;32452;51.382;-0.002;2023-03-23T00:37:17;23.90;;;5.63;;
46719;SDS011;32452;51.382;-0.002;2023-03-23T00:40:02;30.00;;;5.25;;
46719;SDS011;32452;51.382;-0.002;2023-03-23T00:42:54;21.05;;;4.70;;
46719;SDS011;32452;51.382;-0.002;2023-03-23T00:45:39;23.45;;;5.78;;
46719;SDS011;32452;51.382;-0.002;2023-03-23T00:48:24;27.88;;;5.63;;
46719;SDS011;32452;51.382;-0.002;2023-03-23T00:51:08;27.35;;;5.20;;
46719;SDS011;32452;51.382;-0.002;2023-03-23T00:53:55;26.63;;;5.20;;
46719;SDS011;32452;51.382;-0.002;2023-03-23T00:56:40;26.35;;;5.65;;
46719;SDS011;32452;51.382;-0.002;2023-03-23T00:59:24;22.20;;;5.60;;
46719;SDS011;32452;51.382;-0.002;2023-03-23T01:02:09;27.70;;;5.20;;
46719;SDS011;32452;51.382;-0.002;2023-03-23T01:09:20;28.80;;;5.93;;
46719;SDS011;32452;51.382;-0.002;2023-03-23T01:12:05;23.40;;;5.68;;
46719;SDS011;32452;51.382;-0.002;2023-03-23T01:14:50;31.27;;;7.40;;
46719;SDS011;32452;51.382;-0.002;2023-03-23T01:17:35;27.33;;;5.07;;
46719;SDS011;32452;51.382;-0.002;2023-03-23T01:20:20;30.88;;;6.13;;
46719;SDS011;32452;51.382;-0.002;2023-03-23T01:23:04;31.95;;;5.53;;
46719;SDS011;32452;51.382;-0.002;2023-03-23T01:25:49;28.48;;;5.70;;
46719;SDS011;32452;51.382;-0.002;2023-03-23T01:28:34;32.33;;;7.53;;
46719;SDS011;32452;51.382;-0.002;2023-03-23T01:31:20;29.25;;;6.53;;
46719;SDS011;32452;51.382;-0.002;2023-03-23T01:34:06;22.92;;;6.10;;
46719;SDS011;32452;51.382;-0.002;2023-03-23T01:36:51;24.30;;;5.45;;
46719;SDS011;32452;51.382;-0.002;2023-03-23T01:39:36;31.30;;;8.38;;
46719;SDS011;32452;51.382;-0.002;2023-03-23T01:42:25;25.05;;;5.43;;
46719;SDS011;32452;51.382;-0.002;2023-03-23T01:48:07;27.75;;;5.28;;
46719;SDS011;32452;51.382;-0.002;2023-03-23T01:51:07;28.85;;;6.60;;
46719;SDS011;32452;51.382;-0.002;2023-03-23T01:53:55;30.17;;;5.15;;
46719;SDS011;32452;51.382;-0.002;2023-03-23T01:56:45;28.63;;;4.78;;
46719;SDS011;32452;51.382;-0.002;2023-03-23T01:59:34;22.35;;;6.65;;
46719;SDS011;32452;51.382;-0.002;2023-03-23T02:02:20;26.92;;;5.28;;
46719;SDS011;32452;51.382;-0.002;2023-03-23T02:05:08;24.52;;;5.40;;
46719;SDS011;32452;51.382;-0.002;2023-03-23T02:08:07;27.13;;;5.43;;
46719;SDS011;32452;51.382;-0.002;2023-03-23T02:10:53;26.63;;;6.38;;
46719;SDS011;32452;51.382;-0.002;2023-03-23T02:13:38;26.35;;;4.90;;
46719;SDS011;32452;51.382;-0.002;2023-03-23T02:16:40;23.63;;;6.35;;
46719;SDS011;32452;51.382;-0.002;2023-03-23T02:29:04;30.92;;;6.40;;
46719;SDS011;32452;51.382;-0.002;2023-03-23T02:35:00;29.58;;;6.10;;
46719;SDS011;32452;51.382;-0.002;2023-03-23T02:37:51;26.85;;;5.95;;
46719;SDS011;32452;51.382;-0.002;2023-03-23T02:40:59;31.80;;;7.88;;
46719;SDS011;32452;51.382;-0.002;2023-03-23T02:43:46;30.55;;;6.55;;
46719;SDS011;32452;51.382;-0.002;2023-03-23T02:46:32;35.92;;;6.60;;
46719;SDS011;32452;51.382;-0.002;2023-03-23T02:49:19;23.10;;;5.53;;
46719;SDS011;32452;51.382;-0.002;2023-03-23T02:52:13;34.65;;;5.50;;
46719;SDS011;32452;51.382;-0.002;2023-03-23T02:55:02;26.95;;;5.45;;
46719;SDS011;32452;51.382;-0.002;2023-03-23T02:57:48;28.08;;;5.55;;
46719;SDS011;32452;51.382;-0.002;2023-03-23T03:00:36;33.45;;;6.55;;
46719;SDS011;32452;51.382;-0.002;2023-03-23T03:03:22;28.45;;;6.15;;
46719;SDS011;32452;51.382;-0.002;2023-03-23T03:06:17;32.75;;;6.18;;
46719;SDS011;32452;51.382;-0.002;2023-03-23T03:12:33;37.42;;;6.32;;
46719;SDS011;32452;51.382;-0.002;2023-03-23T03:15:37;32.58;;;7.95;;
46719;SDS011;32452;51.382;-0.002;2023-03-23T03:18:34;31.10;;;6.20;;
46719;SDS011;32452;51.382;-0.002;2023-03-23T03:21:27;32.75;;;5.88;;
46719;SDS011;32452;51.382;-0.002;2023-03-23T03:24:15;35.40;;;6.78;;
46719;SDS011;32452;51.382;-0.002;2023-03-23T03:27:02;24.63;;;5.00;;
46719;SDS011;32452;51.382;-0.002;2023-03-23T03:29:52;34.65;;;5.07;;
46719;SDS011;32452;51.382;-0.002;2023-03-23T03:32:49;30.63;;;5.40;;
46719;SDS011;32452;51.382;-0.002;2023-03-23T03:35:37;34.28;;;5.20;;
46719;SDS011;32452;51.382;-0.002;2023-03-23T03:38:24;30.85;;;6.30;;
46719;SDS011;32452;51.382;-0.002;2023-03-23T03:41:09;33.53;;;6.47;;
46719;SDS011;32452;51.382;-0.002;2023-03-23T03:43:54;27.17;;;5.18;;
46719;SDS011;32452;51.382;-0.002;2023-03-23T03:46:39;34.95;;;7.03;;
46719;SDS011;32452;51.382;-0.002;2023-03-23T03:49:23;39.20;;;7.35;;
46719;SDS011;32452;51.382;-0.002;2023-03-23T03:52:09;29.88;;;5.68;;
46719;SDS011;32452;51.382;-0.002;2023-03-23T03:54:54;33.50;;;7.38;;
46719;SDS011;32452;51.382;-0.002;2023-03-23T03:57:39;29.95;;;5.97;;
46719;SDS011;32452;51.382;-0.002;2023-03-23T04:00:25;26.42;;;5.93;;
46719;SDS011;32452;51.382;-0.002;2023-03-23T04:03:09;32.65;;;6.30;;
46719;SDS011;32452;51.382;-0.002;2023-03-23T04:05:54;27.83;;;6.28;;
46719;SDS011;32452;51.382;-0.002;2023-03-23T04:08:40;26.58;;;6.70;;
46719;SDS011;32452;51.382;-0.002;2023-03-23T04:11:25;32.42;;;7.13;;
46719;SDS011;32452;51.382;-0.002;2023-03-23T04:14:09;23.40;;;4.30;;
46719;SDS011;32452;51.382;-0.002;2023-03-23T04:16:54;29.45;;;5.20;;
46719;SDS011;32452;51.382;-0.002;2023-03-23T04:19:40;37.22;;;7.60;;
46719;SDS011;32452;51.382;-0.002;2023-03-23T04:22:25;21.27;;;5.97;;
46719;SDS011;32452;51.382;-0.002;2023-03-23T04:25:17;30.33;;;6.15;;
46719;SDS011;32452;51.382;-0.002;2023-03-23T04:28:05;27.73;;;5.72;;
46719;SDS011;32452;51.382;-0.002;2023-03-23T04:30:50;28.05;;;6.63;;
46719;SDS011;32452;51.382;-0.002;2023-03-23T04:33:38;22.60;;;5.22;;
46719;SDS011;32452;51.382;-0.002;2023-03-23T04:36:24;39.85;;;6.10;;
46719;SDS011;32452;51.382;-0.002;2023-03-23T04:39:09;27.13;;;6.55;;
46719;SDS011;32452;51.382;-0.002;2023-03-23T04:41:53;29.75;;;4.78;;
46719;SDS011;32452;51.382;-0.002;2023-03-23T04:44:38;32.38;;;5.63;;
46719;SDS011;32452;51.382;-0.002;2023-03-23T04:47:23;24.58;;;5.38;;
46719;SDS011;32452;51.382;-0.002;2023-03-23T04:50:13;30.52;;;6.18;;
46719;SDS011;32452;51.382;-0.002;2023-03-23T04:53:01;29.52;;;5.57;;
46719;SDS011;32452;51.382;-0.002;2023-03-23T04:55:48;26.45;;;6.13;;
46719;SDS011;32452;51.382;-0.002;2023-03-23T04:58:32;42.92;;;6.72;;
46719;SDS011;32452;51.382;-0.002;2023-03-23T05:01:17;36.17;;;6.55;;
46719;SDS011;32452;51.382;-0.002;2023-03-23T05:04:02;33.53;;;5.75;;
46719;SDS011;32452;51.382;-0.002;2023-03-23T05:06:47;40.58;;;7.10;;
46719;SDS011;32452;51.382;-0.002;2023-03-23T05:09:32;37.25;;;7.88;;
46719;SDS011;32452;51.382;-0.002;2023-03-23T05:12:16;31.60;;;5.13;;
46719;SDS011;32452;51.382;-0.002;2023-03-23T05:15:01;31.58;;;7.72;;
46719;SDS011;32452;51.382;-0.002;2023-03-23T05:17:46;37.63;;;6.25;;
46719;SDS011;32452;51.382;-0.002;2023-03-23T05:20:32;36.03;;;5.88;;
46719;SDS011;32452;51.382;-0.002;2023-03-23T05:23:17;43.05;;;7.38;;
46719;SDS011;32452;51.382;-0.002;2023-03-23T05:26:04;45.40;;;7.30;;
46719;SDS011;32452;51.382;-0.002;2023-03-23T05:28:50;45.33;;;8.50;;
46719;SDS011;32452;51.382;-0.002;2023-03-23T05:31:36;34.92;;;7.13;;
46719;SDS011;32452;51.382;-0.002;2023-03-23T05:34:21;40.92;;;9.55;;
46719;SDS011;32452;51.382;-0.002;2023-03-23T05:37:05;37.78;;;10.57;;
46719;SDS011;32452;51.382;-0.002;2023-03-23T05:39:50;38.50;;;7.60;;
46719;SDS011;32452;51.382;-0.002;2023-03-23T05:42:39;34.55;;;8.90;;
46719;SDS011;32452;51.382;-0.002;2023-03-23T05:45:25;34.42;;;6.70;;
46719;SDS011;32452;51.382;-0.002;2023-03-23T05:48:10;35.15;;;7.63;;
46719;SDS011;32452;51.382;-0.002;2023-03-23T05:50:54;39.58;;;7.05;;
46719;SDS011;32452;51.382;-0.002;2023-03-23T05:53:40;34.97;;;7.32;;
46719;SDS011;32452;51.382;-0.002;2023-03-23T05:56:27;30.42;;;6.40;;
46719;SDS011;32452;51.382;-0.002;2023-03-23T05:59:14;32.35;;;6.90;;
46719;SDS011;32452;51.382;-0.002;2023-03-23T06:01:59;35.47;;;7.38;;
46719;SDS011;32452;51.382;-0.002;2023-03-23T06:04:43;40.45;;;6.57;;
46719;SDS011;32452;51.382;-0.002;2023-03-23T06:07:28;45.88;;;9.02;;
46719;SDS011;32452;51.382;-0.002;2023-03-23T06:10:13;34.15;;;6.82;;
46719;SDS011;32452;51.382;-0.002;2023-03-23T06:12:58;27.10;;;5.13;;
46719;SDS011;32452;51.382;-0.002;2023-03-23T06:15:43;28.33;;;6.20;;
46719;SDS011;32452;51.382;-0.002;2023-03-23T06:18:28;29.23;;;5.63;;
46719;SDS011;32452;51.382;-0.002;2023-03-23T06:21:13;26.23;;;4.82;;
46719;SDS011;32452;51.382;-0.002;2023-03-23T06:23:58;29.30;;;5.60;;
46719;SDS011;32452;51.382;-0.002;2023-03-23T06:26:43;23.73;;;4.57;;
46719;SDS011;32452;51.382;-0.002;2023-03-23T06:29:29;29.17;;;4.70;;
46719;SDS011;32452;51.382;-0.002;2023-03-23T06:32:33;28.60;;;6.20;;
46719;SDS011;32452;51.382;-0.002;2023-03-23T06:35:18;19.25;;;4.57;;
46719;SDS011;32452;51.382;-0.002;2023-03-23T06:38:03;27.98;;;4.47;;
46719;SDS011;32452;51.382;-0.002;2023-03-23T06:40:48;30.70;;;5.60;;
46719;SDS011;32452;51.382;-0.002;2023-03-23T06:43:35;25.35;;;5.88;;
46719;SDS011;32452;51.382;-0.002;2023-03-23T06:46:22;24.00;;;5.07;;
46719;SDS011;32452;51.382;-0.002;2023-03-23T06:49:07;36.28;;;5.05;;
46719;SDS011;32452;51.382;-0.002;2023-03-23T06:51:52;25.02;;;4.78;;
46719;SDS011;32452;51.382;-0.002;2023-03-23T06:54:37;40.25;;;6.18;;
46719;SDS011;32452;51.382;-0.002;2023-03-23T06:57:22;40.63;;;8.10;;
46719;SDS011;32452;51.382;-0.002;2023-03-23T07:00:06;30.40;;;6.80;;
46719;SDS011;32452;51.382;-0.002;2023-03-23T07:02:54;21.38;;;4.72;;
46719;SDS011;32452;51.382;-0.002;2023-03-23T07:05:39;30.30;;;5.97;;
46719;SDS011;32452;51.382;-0.002;2023-03-23T07:08:23;38.38;;;6.80;;
46719;SDS011;32452;51.382;-0.002;2023-03-23T07:11:08;37.10;;;7.25;;
46719;SDS011;32452;51.382;-0.002;2023-03-23T07:13:54;42.10;;;6.57;;
46719;SDS011;32452;51.382;-0.002;2023-03-23T07:16:39;27.50;;;5.95;;
46719;SDS011;32452;51.382;-0.002;2023-03-23T07:19:23;40.00;;;6.80;;
46719;SDS011;32452;51.382;-0.002;2023-03-23T07:22:08;30.52;;;5.70;;
46719;SDS011;32452;51.382;-0.002;2023-03-23T07:24:52;28.13;;;5.18;;
46719;SDS011;32452;51.382;-0.002;2023-03-23T07:27:37;31.60;;;5.97;;
46719;SDS011;32452;51.382;-0.002;2023-03-23T07:30:28;37.95;;;8.23;;
46719;SDS011;32452;51.382;-0.002;2023-03-23T07:33:23;31.02;;;6.07;;
46719;SDS011;32452;51.382;-0.002;2023-03-23T07:36:11;32.95;;;7.43;;
46719;SDS011;32452;51.382;-0.002;2023-03-23T07:39:04;36.92;;;6.82;;
46719;SDS011;32452;51.382;-0.002;2023-03-23T07:42:08;30.13;;;6.45;;
46719;SDS011;32452;51.382;-0.002;2023-03-23T07:44:55;27.27;;;6.03;;
46719;SDS011;32452;51.382;-0.002;2023-03-23T07:47:42;39.33;;;7.25;;
46719;SDS011;32452;51.382;-0.002;2023-03-23T07:50:27;37.35;;;7.18;;
46719;SDS011;32452;51.382;-0.002;2023-03-23T07:53:17;29.50;;;5.43;;
46719;SDS011;32452;51.382;-0.002;2023-03-23T07:56:18;40.55;;;7.55;;
46719;SDS011;32452;51.382;-0.002;2023-03-23T07:59:13;28.77;;;5.72;;
46719;SDS011;32452;51.382;-0.002;2023-03-23T08:02:00;27.15;;;7.25;;
46719;SDS011;32452;51.382;-0.002;2023-03-23T08:04:44;23.17;;;5.32;;
46719;SDS011;32452;51.382;-0.002;2023-03-23T08:07:29;32.78;;;5.57;;
46719;SDS011;32452;51.382;-0.002;2023-03-23T08:10:14;34.45;;;5.57;;
46719;SDS011;32452;51.382;-0.002;2023-03-23T08:13:00;29.58;;;5.75;;
46719;SDS011;32452;51.382;-0.002;2023-03-23T08:15:45;23.17;;;4.72;;
46719;SDS011;32452;51.382;-0.002;2023-03-23T08:18:30;24.23;;;5.93;;
46719;SDS011;32452;51.382;-0.002;2023-03-23T08:21:15;28.02;;;7.03;;
46719;SDS011;32452;51.382;-0.002;2023-03-23T08:23:59;29.15;;;5.93;;
46719;SDS011;32452;51.382;-0.002;2023-03-23T08:26:45;25.60;;;5.20;;
46719;SDS011;32452;51.382;-0.002;2023-03-23T08:29:29;26.02;;;5.70;;
46719;SDS011;32452;51.382;-0.002;2023-03-23T08:32:14;30.15;;;7.20;;
46719;SDS011;32452;51.382;-0.002;2023-03-23T08:34:59;18.60;;;4.82;;
46719;SDS011;32452;51.382;-0.002;2023-03-23T08:37:44;23.42;;;4.70;;
46719;SDS011;32452;51.382;-0.002;2023-03-23T08:40:29;27.85;;;5.47;;
46719;SDS011;32452;51.382;-0.002;2023-03-23T08:43:13;26.73;;;5.72;;
46719;SDS011;32452;51.382;-0.002;2023-03-23T08:45:59;28.67;;;5.15;;
46719;SDS011;32452;51.382;-0.002;2023-03-23T08:48:45;24.58;;;5.25;;
46719;SDS011;32452;51.382;-0.002;2023-03-23T08:51:30;22.95;;;5.07;;
46719;SDS011;32452;51.382;-0.002;2023-03-23T08:54:15;24.63;;;5.47;;
46719;SDS011;32452;51.382;-0.002;2023-03-23T08:57:01;21.25;;;4.55;;
46719;SDS011;32452;51.382;-0.002;2023-03-23T08:59:46;19.73;;;5.07;;
46719;SDS011;32452;51.382;-0.002;2023-03-23T09:02:31;20.92;;;4.53;;
46719;SDS011;32452;51.382;-0.002;2023-03-23T09:05:18;22.33;;;4.53;;
46719;SDS011;32452;51.382;-0.002;2023-03-23T09:08:08;20.80;;;4.05;;
46719;SDS011;32452;51.382;-0.002;2023-03-23T09:10:52;30.58;;;5.72;;
46719;SDS011;32452;51.382;-0.002;2023-03-23T09:13:37;25.30;;;5.68;;
46719;SDS011;32452;51.382;-0.002;2023-03-23T09:16:24;20.15;;;4.75;;
46719;SDS011;32452;51.382;-0.002;2023-03-23T09:19:08;22.48;;;4.72;;
46719;SDS011;32452;51.382;-0.002;2023-03-23T09:21:53;20.60;;;4.15;;
46719;SDS011;32452;51.382;-0.002;2023-03-23T09:24:38;22.52;;;5.00;;
46719;SDS011;32452;51.382;-0.002;2023-03-23T09:27:23;24.67;;;4.20;;
46719;SDS011;32452;51.382;-0.002;2023-03-23T09:30:10;26.20;;;4.25;;
46719;SDS011;32452;51.382;-0.002;2023-03-23T09:32:56;21.10;;;5.57;;
46719;SDS011;32452;51.382;-0.002;2023-03-23T09:35:41;21.75;;;4.03;;
46719;SDS011;32452;51.382;-0.002;2023-03-23T09:38:26;25.13;;;6.45;;
46719;SDS011;32452;51.382;-0.002;2023-03-23T09:50:12;25.92;;;5.53;;
46719;SDS011;32452;51.382;-0.002;2023-03-23T09:56:11;18.65;;;3.58;;
46719;SDS011;32452;51.382;-0.002;2023-03-23T09:59:00;21.40;;;4.50;;
46719;SDS011;32452;51.382;-0.002;2023-03-23T10:01:55;27.13;;;5.65;;
46719;SDS011;32452;51.382;-0.002;2023-03-23T10:04:54;27.50;;;5.43;;
46719;SDS011;32452;51.382;-0.002;2023-03-23T10:07:59;31.65;;;7.07;;
46719;SDS011;32452;51.382;-0.002;2023-03-23T10:10:49;23.35;;;4.70;;
46719;SDS011;32452;51.382;-0.002;2023-03-23T10:17:15;28.45;;;5.82;;
46719;SDS011;32452;51.382;-0.002;2023-03-23T10:26:28;25.13;;;5.38;;
46719;SDS011;32452;51.382;-0.002;2023-03-23T10:29:22;23.25;;;4.50;;
46719;SDS011;32452;51.382;-0.002;2023-03-23T10:35:00;21.05;;;3.95;;
46719;SDS011;32452;51.382;-0.002;2023-03-23T10:37:50;19.13;;;3.20;;
46719;SDS011;32452;51.382;-0.002;2023-03-23T10:40:50;16.63;;;3.75;;
46719;SDS011;32452;51.382;-0.002;2023-03-23T10:43:40;14.68;;;3.33;;
46719;SDS011;32452;51.382;-0.002;2023-03-23T10:46:27;16.50;;;4.10;;
46719;SDS011;32452;51.382;-0.002;2023-03-23T10:49:22;17.90;;;3.67;;
46719;SDS011;32452;51.382;-0.002;2023-03-23T10:52:41;19.45;;;4.05;;
46719;SDS011;32452;51.382;-0.002;2023-03-23T10:55:36;19.05;;;3.53;;
46719;SDS011;32452;51.382;-0.002;2023-03-23T10:58:28;17.33;;;3.80;;
46719;SDS011;32452;51.382;-0.002;2023-03-23T11:01:17;15.25;;;3.13;;
46719;SDS011;32452;51.382;-0.002;2023-03-23T11:04:03;18.27;;;3.92;;
46719;SDS011;32452;51.382;-0.002;2023-03-23T11:06:57;22.83;;;6.18;;
46719;SDS011;32452;51.382;-0.002;2023-03-23T11:09:52;21.17;;;4.55;;
46719;SDS011;32452;51.382;-0.002;2023-03-23T11:12:39;21.10;;;4.57;;
46719;SDS011;32452;51.382;-0.002;2023-03-23T11:15:29;24.80;;;4.47;;
46719;SDS011;32452;51.382;-0.002;2023-03-23T11:18:20;24.63;;;5.03;;
46719;SDS011;32452;51.382;-0.002;2023-03-23T11:21:07;19.88;;;4.03;;
46719;SDS011;32452;51.382;-0.002;2023-03-23T11:23:57;19.73;;;4.88;;
46719;SDS011;32452;51.382;-0.002;2023-03-23T11:26:44;17.20;;;4.15;;
46719;SDS011;32452;51.382;-0.002;2023-03-23T11:29:29;20.55;;;4.20;;
46719;SDS011;32452;51.382;-0.002;2023-03-23T11:32:15;20.67;;;5.45;;
46719;SDS011;32452;51.382;-0.002;2023-03-23T11:35:01;20.98;;;4.38;;
46719;SDS011;32452;51.382;-0.002;2023-03-23T11:37:52;16.02;;;3.53;;
46719;SDS011;32452;51.382;-0.002;2023-03-23T11:40:43;17.00;;;3.78;;
46719;SDS011;32452;51.382;-0.002;2023-03-23T11:43:34;22.38;;;5.50;;
46719;SDS011;32452;51.382;-0.002;2023-03-23T11:46:29;17.42;;;3.83;;
46719;SDS011;32452;51.382;-0.002;2023-03-23T11:49:30;19.45;;;5.95;;
46719;SDS011;32452;51.382;-0.002;2023-03-23T11:52:32;18.40;;;3.88;;
46719;SDS011;32452;51.382;-0.002;2023-03-23T11:55:50;23.20;;;4.47;;
46719;SDS011;32452;51.382;-0.002;2023-03-23T11:58:41;27.13;;;4.90;;
46719;SDS011;32452;51.382;-0.002;2023-03-23T12:01:30;17.05;;;3.85;;
46719;SDS011;32452;51.382;-0.002;2023-03-23T12:04:52;27.80;;;4.72;;
46719;SDS011;32452;51.382;-0.002;2023-03-23T12:10:43;24.20;;;5.15;;
46719;SDS011;32452;51.382;-0.002;2023-03-23T12:16:44;24.50;;;6.07;;
46719;SDS011;32452;51.382;-0.002;2023-03-23T12:20:01;30.02;;;6.00;;
46719;SDS011;32452;51.382;-0.002;2023-03-23T12:23:04;20.60;;;5.75;;
46719;SDS011;32452;51.382;-0.002;2023-03-23T12:26:10;26.65;;;5.32;;
46719;SDS011;32452;51.382;-0.002;2023-03-23T12:32:44;25.92;;;5.45;;
46719;SDS011;32452;51.382;-0.002;2023-03-23T12:36:07;27.42;;;5.97;;
46719;SDS011;32452;51.382;-0.002;2023-03-23T12:55:14;32.10;;;5.70;;
46719;SDS011;32452;51.382;-0.002;2023-03-23T12:58:21;28.00;;;5.10;;
46719;SDS011;32452;51.382;-0.002;2023-03-23T13:01:12;24.30;;;5.22;;
46719;SDS011;32452;51.382;-0.002;2023-03-23T13:04:05;25.50;;;4.85;;
46719;SDS011;32452;51.382;-0.002;2023-03-23T13:06:51;27.10;;;6.70;;
46719;SDS011;32452;51.382;-0.002;2023-03-23T13:09:46;24.55;;;5.80;;
46719;SDS011;32452;51.382;-0.002;2023-03-23T13:12:42;19.52;;;5.15;;
46719;SDS011;32452;51.382;-0.002;2023-03-23T13:24:30;31.30;;;5.60;;
46719;SDS011;32452;51.382;-0.002;2023-03-23T13:27:22;24.45;;;5.60;;
46719;SDS011;32452;51.382;-0.002;2023-03-23T13:30:19;22.65;;;4.80;;
46719;SDS011;32452;51.382;-0.002;2023-03-23T13:33:05;24.20;;;5.03;;
46719;SDS011;32452;51.382;-0.002;2023-03-23T13:35:55;28.67;;;6.15;;
46719;SDS011;32452;51.382;-0.002;2023-03-23T13:38:45;22.52;;;5.30;;
46719;SDS011;32452;51.382;-0.002;2023-03-23T13:41:33;24.90;;;5.93;;
46719;SDS011;32452;51.382;-0.002;2023-03-23T13:44:24;27.35;;;4.90;;
46719;SDS011;32452;51.382;-0.002;2023-03-23T13:53:11;26.50;;;5.40;;
46719;SDS011;32452;51.382;-0.002;2023-03-23T13:56:05;25.30;;;5.10;;
46719;SDS011;32452;51.382;-0.002;2023-03-23T13:59:05;23.02;;;4.50;;
46719;SDS011;32452;51.382;-0.002;2023-03-23T14:08:03;25.65;;;5.28;;
46719;SDS011;32452;51.382;-0.002;2023-03-23T14:10:53;25.17;;;4.78;;
46719;SDS011;32452;51.382;-0.002;2023-03-23T14:13:47;23.42;;;5.70;;
46719;SDS011;32452;51.382;-0.002;2023-03-23T14:19:28;19.75;;;5.25;;
46719;SDS011;32452;51.382;-0.002;2023-03-23T14:22:24;19.75;;;3.97;;
46719;SDS011;32452;51.382;-0.002;2023-03-23T14:25:14;24.98;;;4.85;;
46719;SDS011;32452;51.382;-0.002;2023-03-23T14:28:00;18.95;;;4.70;;
46719;SDS011;32452;51.382;-0.002;2023-03-23T14:30:45;25.60;;;4.70;;
46719;SDS011;32452;51.382;-0.002;2023-03-23T14:33:30;31.55;;;6.10;;
46719;SDS011;32452;51.382;-0.002;2023-03-23T14:36:19;29.73;;;6.07;;
46719;SDS011;32452;51.382;-0.002;2023-03-23T14:39:19;26.77;;;5.90;;
46719;SDS011;32452;51.382;-0.002;2023-03-23T14:42:06;42.05;;;7.43;;
46719;SDS011;32452;51.382;-0.002;2023-03-23T14:44:56;29.83;;;5.88;;
46719;SDS011;32452;51.382;-0.002;2023-03-23T14:47:50;29.20;;;5.88;;
46719;SDS011;32452;51.382;-0.002;2023-03-23T14:50:42;25.73;;;7.07;;
46719;SDS011;32452;51.382;-0.002;2023-03-23T14:53:38;21.48;;;5.03;;
46719;SDS011;32452;51.382;-0.002;2023-03-23T14:56:34;28.85;;;5.90;;
46719;SDS011;32452;51.382;-0.002;2023-03-23T14:59:20;28.33;;;7.35;;
46719;SDS011;32452;51.382;-0.002;2023-03-23T15:02:06;32.38;;;7.03;;
46719;SDS011;32452;51.382;-0.002;2023-03-23T15:05:13;29.38;;;6.80;;
46719;SDS011;32452;51.382;-0.002;2023-03-23T15:08:19;34.33;;;7.43;;
46719;SDS011;32452;51.382;-0.002;2023-03-23T15:11:39;32.50;;;7.30;;
46719;SDS011;32452;51.382;-0.002;2023-03-23T15:14:26;40.42;;;7.53;;
46719;SDS011;32452;51.382;-0.002;2023-03-23T15:20:31;28.13;;;6.55;;
46719;SDS011;32452;51.382;-0.002;2023-03-23T15:23:29;23.92;;;5.57;;
46719;SDS011;32452;51.382;-0.002;2023-03-23T15:26:41;23.65;;;5.68;;
46719;SDS011;32452;51.382;-0.002;2023-03-23T15:29:26;21.73;;;5.05;;
46719;SDS011;32452;51.382;-0.002;2023-03-23T15:32:11;29.27;;;6.57;;
46719;SDS011;32452;51.382;-0.002;2023-03-23T15:34:56;27.48;;;6.38;;
46719;SDS011;32452;51.382;-0.002;2023-03-23T15:37:43;24.27;;;5.28;;
46719;SDS011;32452;51.382;-0.002;2023-03-23T15:40:32;22.88;;;6.55;;
46719;SDS011;32452;51.382;-0.002;2023-03-23T15:43:35;32.05;;;6.38;;
46719;SDS011;32452;51.382;-0.002;2023-03-23T15:46:34;22.42;;;5.00;;
46719;SDS011;32452;51.382;-0.002;2023-03-23T15:49:19;27.20;;;5.70;;
46719;SDS011;32452;51.382;-0.002;2023-03-23T15:52:09;22.77;;;4.82;;
46719;SDS011;32452;51.382;-0.002;2023-03-23T15:54:55;24.98;;;4.82;;
46719;SDS011;32452;51.382;-0.002;2023-03-23T15:57:40;22.52;;;6.65;;
46719;SDS011;32452;51.382;-0.002;2023-03-23T16:00:25;30.30;;;5.68;;
46719;SDS011;32452;51.382;-0.002;2023-03-23T16:03:16;22.55;;;6.25;;
46719;SDS011;32452;51.382;-0.002;2023-03-23T16:06:08;28.77;;;6.00;;
46719;SDS011;32452;51.382;-0.002;2023-03-23T16:09:13;37.53;;;7.18;;
46719;SDS011;32452;51.382;-0.002;2023-03-23T16:12:01;33.60;;;7.45;;
46719;SDS011;32452;51.382;-0.002;2023-03-23T16:14:46;25.23;;;5.85;;
46719;SDS011;32452;51.382;-0.002;2023-03-23T16:17:32;30.25;;;6.93;;
46719;SDS011;32452;51.382;-0.002;2023-03-23T16:20:18;29.20;;;5.88;;
46719;SDS011;32452;51.382;-0.002;2023-03-23T16:23:06;19.85;;;5.90;;
46719;SDS011;32452;51.382;-0.002;2023-03-23T16:25:52;25.88;;;5.07;;
46719;SDS011;32452;51.382;-0.002;2023-03-23T16:28:38;20.08;;;4.72;;
46719;SDS011;32452;51.382;-0.002;2023-03-23T16:31:23;18.92;;;5.80;;
46719;SDS011;32452;51.382;-0.002;2023-03-23T16:34:09;23.08;;;5.10;;
46719;SDS011;32452;51.382;-0.002;2023-03-23T16:36:54;20.55;;;4.55;;
46719;SDS011;32452;51.382;-0.002;2023-03-23T16:39:40;19.13;;;4.00;;
46719;SDS011;32452;51.382;-0.002;2023-03-23T16:42:25;18.70;;;2.90;;
46719;SDS011;32452;51.382;-0.002;2023-03-23T16:45:11;20.42;;;4.38;;
46719;SDS011;32452;51.382;-0.002;2023-03-23T16:47:58;20.45;;;4.18;;
46719;SDS011;32452;51.382;-0.002;2023-03-23T16:50:50;15.07;;;3.72;;
46719;SDS011;32452;51.382;-0.002;2023-03-23T16:53:36;14.82;;;3.63;;
46719;SDS011;32452;51.382;-0.002;2023-03-23T16:56:26;9.40;;;2.50;;
46719;SDS011;32452;51.382;-0.002;2023-03-23T16:59:12;17.00;;;3.25;;
46719;SDS011;32452;51.382;-0.002;2023-03-23T17:01:58;13.40;;;2.42;;
46719;SDS011;32452;51.382;-0.002;2023-03-23T17:04:47;15.75;;;3.28;;
46719;SDS011;32452;51.382;-0.002;2023-03-23T17:07:33;14.23;;;3.67;;
46719;SDS011;32452;51.382;-0.002;2023-03-23T17:10:18;12.20;;;3.03;;
46719;SDS011;32452;51.382;-0.002;2023-03-23T17:13:05;7.47;;;1.83;;
46719;SDS011;32452;51.382;-0.002;2023-03-23T17:15:51;13.20;;;2.63;;
46719;SDS011;32452;51.382;-0.002;2023-03-23T17:18:38;10.95;;;2.75;;
46719;SDS011;32452;51.382;-0.002;2023-03-23T17:21:24;14.13;;;2.33;;
46719;SDS011;32452;51.382;-0.002;2023-03-23T17:24:11;9.90;;;2.30;;
46719;SDS011;32452;51.382;-0.002;2023-03-23T17:26:56;17.38;;;2.50;;
46719;SDS011;32452;51.382;-0.002;2023-03-23T17:29:42;11.85;;;3.05;;
46719;SDS011;32452;51.382;-0.002;2023-03-23T17:32:29;13.25;;;2.80;;
46719;SDS011;32452;51.382;-0.002;2023-03-23T17:35:15;17.50;;;3.13;;
46719;SDS011;32452;51.382;-0.002;2023-03-23T17:38:00;15.30;;;3.53;;
46719;SDS011;32452;51.382;-0.002;2023-03-23T17:40:46;16.95;;;3.50;;
46719;SDS011;32452;51.382;-0.002;2023-03-23T17:43:32;16.05;;;3.75;;
46719;SDS011;32452;51.382;-0.002;2023-03-23T17:46:19;19.63;;;3.83;;
46719;SDS011;32452;51.382;-0.002;2023-03-23T17:49:05;14.48;;;3.78;;
46719;SDS011;32452;51.382;-0.002;2023-03-23T17:51:53;23.00;;;4.05;;
46719;SDS011;32452;51.382;-0.002;2023-03-23T17:54:40;13.68;;;3.45;;
46719;SDS011;32452;51.382;-0.002;2023-03-23T17:57:29;15.95;;;4.57;;
46719;SDS011;32452;51.382;-0.002;2023-03-23T18:00:16;16.70;;;4.18;;
46719;SDS011;32452;51.382;-0.002;2023-03-23T18:03:12;20.83;;;4.30;;
46719;SDS011;32452;51.382;-0.002;2023-03-23T18:06:31;23.05;;;5.13;;
46719;SDS011;32452;51.382;-0.002;2023-03-23T18:09:17;19.42;;;4.30;;